createdAt,value
2019-03-15T14:13:22.178Z,30.16
2019-03-15T14:15:50.780Z,29.30
2019-03-15T14:18:21.597Z,29.52
2019-03-15T14:20:49.773Z,28.46
2019-03-15T14:23:18.497Z,28.85
2019-03-15T14:25:47.245Z,28.95
2019-03-15T14:28:15.841Z,29.72
2019-03-15T14:30:44.481Z,29.39
2019-03-15T14:33:13.301Z,29.29
2019-03-15T14:35:41.952Z,29.03
2019-03-15T14:38:10.882Z,29.69
2019-03-15T14:40:40.040Z,29.13
2019-03-15T14:43:08.801Z,29.71
2019-03-15T14:45:37.517Z,29.53
2019-03-15T14:48:06.241Z,29.33
2019-03-15T14:50:34.892Z,29.36
2019-03-15T14:53:03.539Z,29.35
2019-03-15T14:55:32.212Z,29.59
2019-03-15T14:58:00.859Z,29.10
2019-03-15T15:00:29.577Z,29.44
2019-03-15T15:02:58.124Z,28.89
2019-03-15T15:05:26.874Z,29.38
2019-03-15T15:07:55.802Z,29.00
2019-03-15T15:10:24.883Z,29.34
2019-03-15T15:12:53.520Z,29.97
2019-03-15T15:15:22.171Z,29.65
2019-03-15T15:17:50.872Z,29.00
2019-03-15T15:20:19.509Z,29.37
2019-03-15T15:22:48.161Z,29.33
2019-03-15T15:25:19.575Z,29.67
2019-03-15T15:27:48.226Z,29.22
2019-03-15T15:30:17.664Z,29.31
2019-03-15T15:32:46.415Z,29.22
2019-03-15T15:35:15.314Z,29.41
2019-03-15T15:37:43.953Z,30.03
2019-03-15T15:40:20.109Z,29.49
2019-03-15T15:42:48.747Z,29.58
2019-03-15T15:45:17.387Z,29.48
2019-03-15T15:47:46.093Z,29.96
2019-03-15T15:50:16.041Z,30.33
2019-03-15T15:52:44.678Z,29.46
2019-03-15T15:55:15.186Z,29.83
2019-03-15T15:57:43.853Z,30.25
2019-03-15T16:00:16.925Z,30.08
2019-03-15T16:02:45.617Z,30.22
2019-03-15T16:05:14.553Z,30.75
2019-03-15T16:07:43.205Z,31.01
2019-03-15T16:10:17.380Z,30.75
2019-03-15T16:12:44.997Z,31.07
2019-03-15T16:15:17.719Z,31.11
2019-03-15T16:17:46.399Z,30.50
2019-03-15T16:20:15.636Z,30.89
2019-03-15T16:22:44.417Z,30.85
2019-03-15T16:25:13.329Z,31.17
2019-03-15T16:27:42.038Z,31.56
2019-03-15T16:30:19.092Z,32.03
2019-03-15T16:32:47.734Z,32.10
2019-03-15T16:35:16.376Z,32.05
2019-03-15T16:37:45.028Z,31.67
2019-03-15T16:40:15.045Z,32.15
2019-03-15T16:42:43.716Z,32.15
2019-03-15T16:45:23.552Z,31.74
2019-03-15T16:47:52.219Z,32.13
2019-03-15T16:50:20.868Z,32.08
2019-03-15T16:52:49.559Z,32.34
2019-03-15T16:55:18.255Z,32.58
2019-03-15T16:57:46.921Z,32.63
2019-03-15T17:00:16.811Z,32.76
2019-03-15T17:02:45.477Z,32.38
2019-03-15T17:05:14.710Z,32.29
2019-03-15T17:07:43.397Z,32.25
2019-03-15T17:10:19.841Z,32.05
2019-03-15T17:12:48.476Z,32.53
2019-03-15T17:15:32.699Z,32.82
2019-03-15T17:18:01.551Z,33.34
2019-03-15T17:20:30.138Z,33.72
2019-03-15T17:22:58.794Z,33.73
2019-03-15T17:25:27.492Z,33.96
2019-03-15T17:27:56.148Z,34.32
2019-03-15T17:30:24.731Z,33.70
2019-03-15T17:32:53.439Z,33.73
2019-03-15T17:35:22.584Z,33.97
2019-03-15T17:37:51.334Z,33.79
2019-03-15T17:40:21.308Z,34.13
2019-03-15T17:42:50.011Z,33.88
2019-03-15T17:45:18.628Z,33.44
2019-03-15T17:47:47.613Z,33.43
2019-03-15T17:50:20.370Z,33.49
2019-03-15T17:52:49.006Z,33.48
2019-03-15T17:55:18.269Z,33.58
2019-03-15T17:57:46.959Z,33.74
2019-03-15T18:00:32.405Z,34.06
2019-03-15T18:03:01.111Z,34.80
2019-03-15T18:05:29.751Z,34.55
2019-03-15T18:07:58.314Z,34.56
2019-03-15T18:10:28.052Z,35.15
2019-03-15T18:12:56.904Z,35.35
2019-03-15T18:15:25.625Z,35.45
2019-03-15T18:17:54.311Z,35.55
2019-03-15T18:20:23.294Z,35.46
2019-03-15T18:22:51.938Z,35.33
2019-03-15T18:25:20.627Z,35.77
2019-03-15T18:27:49.671Z,36.08
2019-03-15T18:30:18.407Z,36.31
2019-03-15T18:32:47.098Z,35.94
2019-03-15T18:35:15.840Z,36.47
2019-03-15T18:37:44.477Z,36.54
2019-03-15T18:40:15.623Z,36.62
2019-03-15T18:42:44.537Z,36.72
2019-03-15T18:45:15.054Z,37.03
2019-03-15T18:47:43.760Z,37.59
2019-03-15T18:50:21.076Z,37.90
2019-03-15T18:52:49.762Z,38.09
2019-03-15T18:55:18.417Z,38.10
2019-03-15T18:57:47.089Z,38.25
2019-03-15T19:00:20.729Z,38.28
2019-03-15T19:02:49.368Z,38.47
2019-03-15T19:05:18.024Z,39.05
2019-03-15T19:07:46.674Z,39.03
2019-03-15T19:10:16.927Z,38.83
2019-03-15T19:12:45.577Z,39.18
2019-03-15T19:15:18.634Z,39.51
2019-03-15T19:17:47.585Z,39.99
2019-03-15T19:20:16.929Z,40.22
2019-03-15T19:22:45.682Z,40.47
2019-03-15T19:25:15.579Z,40.95
2019-03-15T19:27:44.327Z,40.81
2019-03-15T19:30:15.030Z,40.97
2019-03-15T19:32:43.702Z,41.07
2019-03-15T19:35:12.340Z,41.18
2019-03-15T19:37:40.987Z,41.40
2019-03-15T19:40:19.729Z,41.84
2019-03-15T19:42:50.087Z,42.18
2019-03-15T19:45:18.725Z,42.38
2019-03-15T19:47:47.427Z,42.42
2019-03-15T19:50:21.113Z,42.88
2019-03-15T19:52:49.776Z,42.79
2019-03-15T19:55:18.419Z,42.91
2019-03-15T19:57:47.064Z,42.88
2019-03-15T20:00:20.204Z,42.62
2019-03-15T20:02:48.855Z,42.69
2019-03-15T20:05:17.503Z,42.61
2019-03-15T20:07:46.343Z,42.89
2019-03-15T20:10:17.229Z,42.54
2019-03-15T20:12:46.066Z,42.94
2019-03-15T20:15:16.217Z,43.44
2019-03-15T20:17:47.347Z,43.51
2019-03-15T20:20:18.070Z,43.59
2019-03-15T20:22:46.809Z,43.79
2019-03-15T20:25:16.858Z,43.97
2019-03-15T20:27:46.018Z,43.96
2019-03-15T20:30:25.590Z,45.01
2019-03-15T20:32:50.861Z,44.96
2019-03-15T20:35:19.436Z,45.37
2019-03-15T20:37:49.820Z,44.97
2019-03-15T20:40:19.929Z,44.96
2019-03-15T20:42:48.584Z,44.83
2019-03-15T20:45:32.331Z,44.41
2019-03-15T20:48:00.975Z,45.10
2019-03-15T20:50:29.623Z,46.13
2019-03-15T20:53:08.563Z,45.68
2019-03-15T20:55:29.334Z,45.81
2019-03-15T20:58:02.583Z,46.31
2019-03-15T21:00:36.003Z,46.04
2019-03-15T21:03:01.565Z,46.72
2019-03-15T21:05:30.211Z,46.52
2019-03-15T21:07:58.919Z,47.02
2019-03-15T21:10:27.577Z,48.03
2019-03-15T21:12:56.159Z,48.55
2019-03-15T21:15:24.853Z,48.48
2019-03-15T21:17:53.498Z,48.19
2019-03-15T21:20:22.998Z,48.32
2019-03-15T21:22:52.058Z,49.43
2019-03-15T21:25:20.704Z,49.91
2019-03-15T21:27:53.941Z,50.19
2019-03-15T21:30:28.890Z,50.32
2019-03-15T21:32:57.530Z,50.29
2019-03-15T21:35:26.034Z,50.69
2019-03-15T21:37:54.713Z,51.23
2019-03-15T21:40:23.568Z,50.93
2019-03-15T21:42:52.192Z,50.81
2019-03-15T21:45:20.720Z,50.45
2019-03-15T21:47:49.296Z,50.83
2019-03-15T21:50:18.936Z,51.22
2019-03-15T21:52:47.619Z,51.35
2019-03-15T21:55:16.261Z,51.63
2019-03-15T21:57:44.908Z,51.85
2019-03-15T22:00:18.361Z,51.13
2019-03-15T22:02:47.012Z,51.39
2019-03-15T22:05:15.652Z,51.61
2019-03-15T22:07:44.357Z,52.20
2019-03-15T22:10:16.752Z,52.70
2019-03-15T22:12:46.934Z,52.95
2019-03-15T22:15:15.616Z,53.04
2019-03-15T22:17:44.301Z,52.80
2019-03-15T22:20:19.647Z,53.29
2019-03-15T22:22:48.348Z,53.77
2019-03-15T22:25:16.919Z,53.70
2019-03-15T22:27:45.481Z,53.55
2019-03-15T22:30:16.968Z,52.95
2019-03-15T22:32:45.682Z,53.18
2019-03-15T22:35:15.317Z,53.10
2019-03-15T22:37:43.871Z,52.64
2019-03-15T22:40:13.918Z,53.30
2019-03-15T22:42:42.576Z,53.35
2019-03-15T22:45:12.870Z,53.33
2019-03-15T22:47:41.509Z,53.02
2019-03-15T22:50:11.456Z,53.39
2019-03-15T22:52:40.090Z,54.18
2019-03-15T22:55:10.033Z,54.18
2019-03-15T22:57:38.663Z,53.67
2019-03-15T23:00:15.543Z,53.11
2019-03-15T23:02:56.400Z,53.44
2019-03-15T23:05:25.049Z,53.77
2019-03-15T23:07:53.707Z,53.71
2019-03-15T23:10:22.329Z,53.77
2019-03-15T23:12:50.867Z,53.40
2019-03-15T23:15:19.511Z,53.21
2019-03-15T23:17:48.159Z,53.71
2019-03-15T23:20:16.704Z,53.59
2019-03-15T23:22:45.226Z,53.33
2019-03-15T23:25:13.863Z,53.33
2019-03-15T23:27:42.562Z,52.97
2019-03-15T23:30:15.474Z,52.83
2019-03-15T23:32:44.321Z,52.57
2019-03-15T23:35:12.927Z,52.72
2019-03-15T23:37:41.500Z,52.99
2019-03-15T23:40:12.445Z,52.97
2019-03-15T23:42:41.159Z,53.20
2019-03-15T23:45:10.871Z,53.33
2019-03-15T23:47:39.526Z,53.54
2019-03-15T23:50:13.092Z,53.39
2019-03-15T23:52:41.746Z,52.92
2019-03-15T23:55:10.385Z,53.41
2019-03-15T23:57:38.889Z,53.33
